createdAt,value
2022-12-07T00:01:45.269Z,100812.75
2022-12-07T00:04:14.606Z,100809.34
2022-12-07T00:06:44.018Z,100815.13
2022-12-07T00:09:16.534Z,100818.47
2022-12-07T00:11:43.715Z,100808.88
2022-12-07T00:14:15.606Z,100818.66
2022-12-07T00:16:43.216Z,100800.75
2022-12-07T00:19:12.678Z,100802.44
2022-12-07T00:21:39.681Z,100795.34
2022-12-07T00:24:07.608Z,100810.53
2022-12-07T00:26:36.969Z,100815.63
2022-12-07T00:29:12.778Z,100813.09
2022-12-07T00:31:40.224Z,100806.84
2022-12-07T00:34:08.337Z,100816.31
2022-12-07T00:36:35.024Z,100816.13
2022-12-07T00:39:01.993Z,100813.94
2022-12-07T00:41:29.804Z,100808.34
2022-12-07T00:43:57.409Z,100804.63
2022-12-07T00:46:25.448Z,100805.13
2022-12-07T00:48:53.340Z,100801.78
2022-12-07T00:51:23.172Z,100801.44
2022-12-07T00:53:50.501Z,100806.50
2022-12-07T00:56:22.978Z,100807.50
2022-12-07T00:59:02.074Z,100805.97
2022-12-07T01:01:35.192Z,100803.63
2022-12-07T01:04:02.681Z,100797.19
2022-12-07T01:06:30.628Z,100810.69
2022-12-07T01:08:57.583Z,100803.78
2022-12-07T01:11:27.536Z,100808.00
2022-12-07T01:13:55.705Z,100795.69
2022-12-07T01:16:25.104Z,100795.00
2022-12-07T01:18:53.778Z,100794.66
2022-12-07T01:21:29.200Z,100800.06
2022-12-07T01:23:58.485Z,100798.38
2022-12-07T01:26:26.087Z,100794.16
2022-12-07T01:28:56.018Z,100790.78
2022-12-07T01:31:25.345Z,100787.56
2022-12-07T01:33:54.971Z,100793.63
2022-12-07T01:36:23.967Z,100789.03
2022-12-07T01:38:53.597Z,100788.84
2022-12-07T01:41:22.287Z,100786.44
2022-12-07T01:44:19.110Z,100778.84
2022-12-07T01:46:48.975Z,100784.94
2022-12-07T01:49:33.859Z,100782.88
2022-12-07T01:52:31.538Z,100798.41
2022-12-07T01:55:13.799Z,100788.63
2022-12-07T01:57:44.361Z,100802.78
2022-12-07T02:00:11.666Z,100801.28
2022-12-07T02:02:44.341Z,100798.25
2022-12-07T02:05:12.648Z,100790.47
2022-12-07T02:07:40.172Z,100794.56
2022-12-07T02:10:20.572Z,100790.69
2022-12-07T02:12:53.082Z,100785.47
2022-12-07T02:15:22.974Z,100802.47
2022-12-07T02:18:07.343Z,100808.72
2022-12-07T02:20:46.145Z,100801.28
2022-12-07T02:23:34.552Z,100789.66
2022-12-07T02:26:20.211Z,100789.53
2022-12-07T02:29:11.167Z,100791.53
2022-12-07T02:31:44.176Z,100798.28
2022-12-07T02:34:20.055Z,100797.28
2022-12-07T02:36:57.056Z,100791.22
2022-12-07T02:39:32.071Z,100797.28
2022-12-07T02:42:07.649Z,100788.84
2022-12-07T02:44:35.225Z,100780.22
2022-12-07T02:47:10.734Z,100778.72
2022-12-07T02:49:40.044Z,100780.72
2022-12-07T02:52:07.028Z,100777.38
2022-12-07T02:54:33.848Z,100775.81
2022-12-07T02:57:37.844Z,100776.00
2022-12-07T03:00:10.645Z,100772.28
2022-12-07T03:02:51.992Z,100773.44
2022-12-07T03:05:30.924Z,100776.53
2022-12-07T03:08:00.707Z,100770.09
2022-12-07T03:10:33.399Z,100761.47
2022-12-07T03:13:06.085Z,100757.44
2022-12-07T03:15:35.325Z,100768.25
2022-12-07T03:18:05.635Z,100762.84
2022-12-07T03:20:36.322Z,100757.13
2022-12-07T03:23:08.901Z,100759.81
2022-12-07T03:25:40.796Z,100769.94
2022-12-07T03:28:11.099Z,100756.75
2022-12-07T03:30:48.126Z,100754.38
2022-12-07T03:33:38.098Z,100754.03
2022-12-07T03:36:17.680Z,100750.31
2022-12-07T03:38:54.991Z,100748.63
2022-12-07T03:41:32.481Z,100750.81
2022-12-07T03:43:59.728Z,100747.13
2022-12-07T03:46:26.350Z,100736.31
2022-12-07T03:49:14.740Z,100740.03
2022-12-07T03:51:59.921Z,100738.47
2022-12-07T03:54:41.212Z,100750.78
2022-12-07T03:57:10.607Z,100740.28
2022-12-07T03:59:39.646Z,100735.53
2022-12-07T04:02:08.451Z,100727.91
2022-12-07T04:04:35.645Z,100724.50
2022-12-07T04:07:02.336Z,100731.94
2022-12-07T04:09:29.260Z,100728.53
2022-12-07T04:11:56.027Z,100727.88
2022-12-07T04:14:22.832Z,100731.19
2022-12-07T04:16:57.541Z,100723.44
2022-12-07T04:19:34.935Z,100726.09
2022-12-07T04:22:04.008Z,100731.19
2022-12-07T04:24:31.673Z,100723.22
2022-12-07T04:26:58.780Z,100730.06
2022-12-07T04:29:26.036Z,100734.31
2022-12-07T04:31:53.060Z,100729.94
2022-12-07T04:34:20.596Z,100729.50
2022-12-07T04:36:48.114Z,100729.56
2022-12-07T04:39:26.833Z,100728.91
2022-12-07T04:41:54.036Z,100727.41
2022-12-07T04:44:22.188Z,100727.91
2022-12-07T04:46:49.723Z,100729.16
2022-12-07T04:49:17.231Z,100731.66
2022-12-07T04:51:44.787Z,100728.78
2022-12-07T04:54:11.572Z,100725.25
2022-12-07T04:56:38.565Z,100729.97
2022-12-07T04:59:05.743Z,100728.66
2022-12-07T05:01:33.268Z,100725.78
2022-12-07T05:04:00.702Z,100729.16
2022-12-07T05:06:28.406Z,100720.22
2022-12-07T05:08:55.216Z,100715.31
2022-12-07T05:11:40.477Z,100715.47
2022-12-07T05:14:13.805Z,100715.81
2022-12-07T05:16:41.360Z,100717.16
2022-12-07T05:19:08.685Z,100715.47
2022-12-07T05:21:35.705Z,100712.09
2022-12-07T05:24:05.058Z,100710.41
2022-12-07T05:26:32.625Z,100709.03
2022-12-07T05:28:59.545Z,100709.19
2022-12-07T05:31:27.136Z,100716.41
2022-12-07T05:33:54.284Z,100709.34
2022-12-07T05:36:21.437Z,100708.00
2022-12-07T05:38:48.319Z,100712.88
2022-12-07T05:41:36.582Z,100710.34
2022-12-07T05:44:03.423Z,100708.31
2022-12-07T05:46:30.098Z,100710.19
2022-12-07T05:48:56.740Z,100715.25
2022-12-07T05:51:24.558Z,100712.41
2022-12-07T05:53:51.492Z,100705.13
2022-12-07T05:56:18.180Z,100705.66
2022-12-07T05:59:03.439Z,100718.47
2022-12-07T06:01:30.352Z,100708.53
2022-12-07T06:03:57.508Z,100706.31
2022-12-07T06:06:24.275Z,100698.91
2022-12-07T06:08:51.012Z,100695.84
2022-12-07T06:11:36.816Z,100708.63
2022-12-07T06:14:04.300Z,100702.25
2022-12-07T06:16:31.286Z,100710.66
2022-12-07T06:18:58.152Z,100699.22
2022-12-07T06:21:27.118Z,100707.44
2022-12-07T06:23:54.089Z,100707.13
2022-12-07T06:26:21.119Z,100700.19
2022-12-07T06:28:48.005Z,100701.22
2022-12-07T06:31:14.954Z,100701.03
2022-12-07T06:33:42.647Z,100693.66
2022-12-07T06:36:13.026Z,100686.41
2022-12-07T06:38:40.009Z,100693.31
2022-12-07T06:41:07.703Z,100691.97
2022-12-07T06:43:35.018Z,100689.94
2022-12-07T06:46:01.903Z,100684.53
2022-12-07T06:48:28.622Z,100681.53
2022-12-07T06:50:55.653Z,100682.06
2022-12-07T06:53:23.334Z,100675.97
2022-12-07T06:55:50.621Z,100684.75
2022-12-07T06:58:18.013Z,100681.34
2022-12-07T07:00:45.391Z,100680.69
2022-12-07T07:03:12.537Z,100672.91
2022-12-07T07:05:40.504Z,100677.47
2022-12-07T07:08:24.314Z,100682.31
2022-12-07T07:10:51.829Z,100690.94
2022-12-07T07:13:18.584Z,100686.41
2022-12-07T07:15:45.425Z,100691.44
2022-12-07T07:18:12.429Z,100695.47
2022-12-07T07:20:39.400Z,100685.81
2022-12-07T07:23:06.312Z,100688.22
2022-12-07T07:25:33.300Z,100678.09
2022-12-07T07:28:00.121Z,100683.78
2022-12-07T07:30:28.117Z,100686.31
2022-12-07T07:32:59.266Z,100680.78
2022-12-07T07:35:26.964Z,100688.16
2022-12-07T07:37:53.694Z,100688.81
2022-12-07T07:40:20.455Z,100686.94
2022-12-07T07:42:51.808Z,100689.25
2022-12-07T07:45:19.933Z,100689.91
2022-12-07T07:47:46.713Z,100696.94
2022-12-07T07:50:13.475Z,100689.50
2022-12-07T07:52:40.464Z,100693.81
2022-12-07T07:55:09.680Z,100689.63
2022-12-07T07:57:38.120Z,100684.22
2022-12-07T08:00:06.748Z,100688.44
2022-12-07T08:02:33.421Z,100682.19
2022-12-07T08:05:00.124Z,100683.94
2022-12-07T08:07:28.385Z,100688.66
2022-12-07T08:09:55.139Z,100691.13
2022-12-07T08:12:21.823Z,100694.16
2022-12-07T08:14:49.899Z,100694.78
2022-12-07T08:17:16.670Z,100700.81
2022-12-07T08:19:43.320Z,100694.03
2022-12-07T08:22:10.919Z,100700.56
2022-12-07T08:24:37.972Z,100706.34
2022-12-07T08:27:04.967Z,100705.34
2022-12-07T08:29:31.744Z,100712.97
2022-12-07T08:31:58.764Z,100705.03
2022-12-07T08:34:25.528Z,100708.25
2022-12-07T08:36:52.508Z,100702.84
2022-12-07T08:39:34.657Z,100708.31
2022-12-07T08:42:01.366Z,100705.66
2022-12-07T08:44:28.102Z,100702.19
2022-12-07T08:46:59.672Z,100698.38
2022-12-07T08:49:33.111Z,100697.19
2022-12-07T08:51:59.835Z,100698.06
2022-12-07T08:54:27.006Z,100702.78
2022-12-07T08:56:59.317Z,100695.06
2022-12-07T08:59:28.117Z,100680.56
2022-12-07T09:01:55.474Z,100690.50
2022-12-07T09:04:22.414Z,100688.34
2022-12-07T09:06:49.746Z,100688.69
2022-12-07T09:09:16.835Z,100683.84
2022-12-07T09:11:43.646Z,100690.59
2022-12-07T09:14:10.313Z,100687.41
2022-12-07T09:16:38.061Z,100676.44
2022-12-07T09:19:04.919Z,100679.66
2022-12-07T09:21:31.798Z,100684.03
2022-12-07T09:23:58.886Z,100683.25
2022-12-07T09:26:25.522Z,100676.66
2022-12-07T09:28:52.188Z,100683.94
2022-12-07T09:31:23.781Z,100676.03
2022-12-07T09:33:59.086Z,100679.38
2022-12-07T09:36:27.318Z,100690.19
2022-12-07T09:38:53.999Z,100686.31
2022-12-07T09:41:22.065Z,100687.81
2022-12-07T09:43:48.816Z,100691.84
2022-12-07T09:46:20.095Z,100682.28
2022-12-07T09:48:48.566Z,100674.19
2022-12-07T09:51:23.098Z,100682.28
2022-12-07T09:53:52.001Z,100675.53
2022-12-07T09:56:20.427Z,100682.47
2022-12-07T09:58:48.413Z,100685.84
2022-12-07T10:01:19.860Z,100680.13
2022-12-07T10:03:57.427Z,100679.09
2022-12-07T10:06:24.133Z,100684.16
2022-12-07T10:08:50.953Z,100693.63
2022-12-07T10:11:17.588Z,100686.34
2022-12-07T10:13:50.392Z,100677.09
2022-12-07T10:16:26.160Z,100677.25
2022-12-07T10:18:53.588Z,100672.34
2022-12-07T10:21:25.053Z,100668.47
2022-12-07T10:24:01.479Z,100664.25
2022-12-07T10:26:31.344Z,100664.97
2022-12-07T10:29:15.387Z,100660.53
2022-12-07T10:31:43.317Z,100657.84
2022-12-07T10:34:27.157Z,100666.13
2022-12-07T10:37:07.422Z,100653.47
2022-12-07T10:40:02.246Z,100654.16
2022-12-07T10:42:33.638Z,100655.16
2022-12-07T10:45:16.732Z,100652.78
2022-12-07T10:48:32.437Z,100651.13
2022-12-07T10:51:28.912Z,100644.38
2022-12-07T10:54:00.167Z,100637.13
2022-12-07T10:56:29.591Z,100639.78
2022-12-07T10:59:47.333Z,100624.91
2022-12-07T11:02:28.976Z,100631.00
2022-12-07T11:05:34.226Z,100633.34
2022-12-07T11:08:04.340Z,100625.09
2022-12-07T11:10:46.772Z,100622.06
2022-12-07T11:13:34.363Z,100614.94
2022-12-07T11:16:19.505Z,100617.66
2022-12-07T11:19:28.661Z,100609.22
2022-12-07T11:21:59.431Z,100601.44
2022-12-07T11:24:42.903Z,100596.34
2022-12-07T11:27:24.836Z,100592.28
2022-12-07T11:30:25.880Z,100585.84
2022-12-07T11:33:27.838Z,100590.91
2022-12-07T11:36:18.986Z,100579.72
2022-12-07T11:38:53.314Z,100571.44
2022-12-07T11:41:33.273Z,100575.97
2022-12-07T11:44:06.617Z,100567.50
2022-12-07T11:47:37.704Z,100556.16
2022-12-07T11:50:30.957Z,100558.19
2022-12-07T11:53:09.542Z,100555.94
2022-12-07T11:55:45.706Z,100559.50
2022-12-07T11:58:46.200Z,100548.31
2022-12-07T12:01:17.977Z,100540.34
2022-12-07T12:04:05.207Z,100538.59
2022-12-07T12:06:32.468Z,100533.34
2022-12-07T12:15:45.684Z,100532.38
2022-12-07T12:18:26.997Z,100526.84
2022-12-07T12:21:03.855Z,100525.63
2022-12-07T12:23:33.446Z,100516.13
2022-12-07T12:26:03.719Z,100513.38
2022-12-07T12:28:39.278Z,100512.53
2022-12-07T12:31:06.049Z,100509.81
2022-12-07T12:33:34.421Z,100509.97
2022-12-07T12:36:24.178Z,100495.38
2022-12-07T12:38:59.944Z,100492.84
2022-12-07T12:41:39.400Z,100488.94
2022-12-07T12:44:16.821Z,100486.53
2022-12-07T12:46:50.030Z,100487.19
2022-12-07T12:49:22.693Z,100482.59
2022-12-07T12:51:56.664Z,100481.06
2022-12-07T12:54:27.139Z,100475.63
2022-12-07T12:57:12.800Z,100468.44
2022-12-07T12:59:56.381Z,100462.66
2022-12-07T13:02:36.151Z,100462.19
2022-12-07T13:05:17.753Z,100460.69
2022-12-07T13:07:53.924Z,100460.13
2022-12-07T13:10:32.974Z,100462.84
2022-12-07T13:13:35.903Z,100445.19
2022-12-07T13:16:08.674Z,100444.75
2022-12-07T13:18:35.429Z,100441.00
2022-12-07T13:21:08.136Z,100445.59
2022-12-07T13:23:47.431Z,100439.97
2022-12-07T13:26:26.334Z,100438.09
2022-12-07T13:29:10.866Z,100438.66
2022-12-07T13:31:45.658Z,100427.00
2022-12-07T13:34:47.871Z,100421.69
2022-12-07T13:37:36.663Z,100419.91
2022-12-07T13:40:20.766Z,100419.06
2022-12-07T13:42:47.481Z,100407.03
2022-12-07T13:45:49.270Z,100411.41
2022-12-07T13:48:33.870Z,100407.38
2022-12-07T13:51:02.745Z,100415.50
2022-12-07T13:53:31.572Z,100397.03
2022-12-07T13:55:59.921Z,100403.72
2022-12-07T13:58:30.823Z,100393.56
2022-12-07T14:00:58.119Z,100406.28
2022-12-07T14:03:29.563Z,100398.03
2022-12-07T14:06:29.404Z,100400.53
2022-12-07T14:09:29.489Z,100389.28
2022-12-07T14:11:58.535Z,100384.22
2022-12-07T14:14:36.888Z,100392.63
2022-12-07T14:17:16.671Z,100388.88
2022-12-07T14:19:49.160Z,100382.16
2022-12-07T14:22:23.361Z,100379.75
2022-12-07T14:24:50.399Z,100384.50
2022-12-07T14:27:22.937Z,100381.72
2022-12-07T14:29:49.874Z,100370.75
2022-12-07T14:32:29.475Z,100377.22
2022-12-07T14:35:11.567Z,100372.16
2022-12-07T14:37:39.690Z,100367.78
2022-12-07T14:40:07.353Z,100362.72
2022-12-07T14:42:35.548Z,100359.66
2022-12-07T14:45:02.496Z,100352.28
2022-12-07T14:50:19.596Z,100343.13
2022-12-07T14:55:48.102Z,100355.16
2022-12-07T14:58:17.145Z,100358.41
2022-12-07T15:00:46.122Z,100365.91
2022-12-07T15:03:14.302Z,100355.81
2022-12-07T15:05:42.978Z,100352.56
2022-12-07T15:08:13.068Z,100351.03
2022-12-07T15:10:41.192Z,100347.03
2022-12-07T15:13:26.991Z,100353.81
2022-12-07T15:15:55.143Z,100341.13
2022-12-07T15:18:24.257Z,100342.38
2022-12-07T15:20:52.520Z,100339.38
2022-12-07T15:23:19.380Z,100336.66
2022-12-07T15:25:48.391Z,100337.75
2022-12-07T15:28:15.621Z,100335.06
2022-12-07T15:30:46.645Z,100333.00
2022-12-07T15:33:14.050Z,100326.75
2022-12-07T15:35:42.551Z,100330.00
2022-12-07T15:38:09.400Z,100319.94
2022-12-07T15:40:36.218Z,100320.28
2022-12-07T15:43:03.633Z,100309.81
2022-12-07T15:45:30.352Z,100304.13
2022-12-07T15:50:44.737Z,100316.72
2022-12-07T15:53:11.661Z,100310.00
2022-12-07T15:55:41.362Z,100306.59
2022-12-07T15:58:08.794Z,100300.38
2022-12-07T16:00:36.731Z,100305.66
2022-12-07T16:03:03.688Z,100299.97
2022-12-07T16:05:38.009Z,100298.25
2022-12-07T16:08:06.740Z,100300.97
2022-12-07T16:10:33.822Z,100292.56
2022-12-07T16:13:00.562Z,100296.66
2022-12-07T16:15:28.006Z,100304.72
2022-12-07T16:17:56.437Z,100302.72
2022-12-07T16:20:24.422Z,100298.41
2022-12-07T16:22:54.490Z,100298.09
2022-12-07T16:25:21.125Z,100294.13
2022-12-07T16:27:47.809Z,100290.72
2022-12-07T16:30:17.234Z,100287.28
2022-12-07T16:32:44.050Z,100299.59
2022-12-07T16:35:12.296Z,100293.34
2022-12-07T16:37:39.195Z,100287.34
2022-12-07T16:40:06.685Z,100289.00
2022-12-07T16:42:36.842Z,100287.16
2022-12-07T16:45:04.469Z,100290.38
2022-12-07T16:47:31.440Z,100291.19
2022-12-07T16:49:58.295Z,100286.94
2022-12-07T16:52:25.240Z,100288.63
2022-12-07T16:54:52.206Z,100283.53
2022-12-07T16:57:23.481Z,100278.16
2022-12-07T16:59:52.098Z,100281.88
2022-12-07T17:02:19.465Z,100273.09
2022-12-07T17:04:46.200Z,100275.47
2022-12-07T17:07:13.404Z,100266.34
2022-12-07T17:09:40.083Z,100260.97
2022-12-07T17:12:07.832Z,100260.97
2022-12-07T17:14:53.215Z,100271.09
2022-12-07T17:17:20.442Z,100270.81
2022-12-07T17:19:47.293Z,100265.75
2022-12-07T17:22:13.976Z,100255.13
2022-12-07T17:24:40.856Z,100248.41
2022-12-07T17:27:07.615Z,100253.97
2022-12-07T17:29:34.534Z,100249.41
2022-12-07T17:32:01.432Z,100247.38
2022-12-07T17:34:28.100Z,100241.31
2022-12-07T17:36:55.887Z,100235.25
2022-12-07T17:39:22.815Z,100233.75
2022-12-07T17:42:08.075Z,100227.19
2022-12-07T17:44:34.983Z,100237.38
2022-12-07T17:47:06.577Z,100230.84
2022-12-07T17:49:33.513Z,100226.31
2022-12-07T17:52:19.081Z,100223.84
2022-12-07T17:54:45.899Z,100221.97
2022-12-07T17:57:12.845Z,100221.53
2022-12-07T17:59:39.826Z,100221.88
2022-12-07T18:02:07.062Z,100221.22
2022-12-07T18:04:34.072Z,100219.56
2022-12-07T18:07:00.826Z,100213.16
2022-12-07T18:09:27.548Z,100220.41
2022-12-07T18:11:54.205Z,100209.75
2022-12-07T18:14:21.282Z,100217.19
2022-12-07T18:16:49.832Z,100208.78
2022-12-07T18:19:17.262Z,100207.25
2022-12-07T18:21:44.667Z,100205.59
2022-12-07T18:24:13.627Z,100210.47
2022-12-07T18:26:40.966Z,100206.44
2022-12-07T18:29:09.692Z,100198.38
2022-12-07T18:31:37.348Z,100211.00
2022-12-07T18:34:08.888Z,100208.50
2022-12-07T18:36:35.698Z,100206.81
2022-12-07T18:39:05.545Z,100198.03
2022-12-07T18:41:32.557Z,100200.09
2022-12-07T18:43:59.544Z,100197.06
2022-12-07T18:46:27.003Z,100187.31
2022-12-07T18:48:57.464Z,100190.50
2022-12-07T18:51:30.357Z,100194.88
2022-12-07T18:54:00.437Z,100198.59
2022-12-07T18:56:27.283Z,100190.34
2022-12-07T18:59:20.767Z,100182.94
2022-12-07T19:01:52.225Z,100171.19
2022-12-07T19:04:19.559Z,100168.81
2022-12-07T19:06:48.526Z,100165.09
2022-12-07T19:09:16.807Z,100165.44
2022-12-07T19:11:49.503Z,100162.59
2022-12-07T19:14:37.743Z,100165.63
2022-12-07T19:17:10.464Z,100161.91
2022-12-07T19:19:55.512Z,100155.53
2022-12-07T19:22:24.154Z,100152.34
2022-12-07T19:24:55.756Z,100139.72
2022-12-07T19:27:24.192Z,100138.88
2022-12-07T19:29:51.302Z,100135.50
2022-12-07T19:32:18.936Z,100130.63
2022-12-07T19:34:48.608Z,100124.72
2022-12-07T19:37:15.607Z,100129.78
2022-12-07T19:39:43.991Z,100127.41
2022-12-07T19:42:11.670Z,100125.75
2022-12-07T19:44:38.473Z,100123.75
2022-12-07T19:47:06.547Z,100120.69
2022-12-07T19:49:35.748Z,100120.38
2022-12-07T19:52:07.001Z,100116.84
2022-12-07T19:54:35.582Z,100123.38
2022-12-07T19:57:04.565Z,100112.78
2022-12-07T19:59:31.740Z,100111.44
2022-12-07T20:01:58.703Z,100119.69
2022-12-07T20:04:29.258Z,100116.69
2022-12-07T20:06:59.013Z,100118.34
2022-12-07T20:09:26.087Z,100113.28
2022-12-07T20:12:11.508Z,100106.38
2022-12-07T20:14:39.104Z,100096.63
2022-12-07T20:17:06.435Z,100095.81
2022-12-07T20:19:36.325Z,100096.50
2022-12-07T20:22:02.986Z,100108.09
2022-12-07T20:24:29.674Z,100098.16
2022-12-07T20:26:56.546Z,100103.03
2022-12-07T20:29:25.063Z,100098.84
2022-12-07T20:31:53.977Z,100108.25
2022-12-07T20:34:20.941Z,100102.38
2022-12-07T20:36:51.611Z,100107.56
2022-12-07T20:39:18.287Z,100108.09
2022-12-07T20:42:03.896Z,100102.88
2022-12-07T20:44:30.680Z,100098.16
2022-12-07T20:46:57.670Z,100098.84
2022-12-07T20:49:25.273Z,100080.66
2022-12-07T20:51:52.408Z,100078.16
2022-12-07T20:54:19.284Z,100078.81
2022-12-07T20:56:46.337Z,100073.28
2022-12-07T20:59:15.597Z,100073.28
2022-12-07T21:01:43.587Z,100071.59
2022-12-07T21:04:12.681Z,100061.84
2022-12-07T21:06:39.729Z,100063.19
2022-12-07T21:09:06.514Z,100064.16
2022-12-07T21:11:34.142Z,100058.94
2022-12-07T21:14:01.099Z,100054.72
2022-12-07T21:16:32.146Z,100050.38
2022-12-07T21:19:03.005Z,100055.03
2022-12-07T21:21:31.671Z,100060.28
2022-12-07T21:24:02.386Z,100049.66
2022-12-07T21:26:31.309Z,100053.06
2022-12-07T21:28:58.101Z,100042.09
2022-12-07T21:31:25.723Z,100045.00
2022-12-07T21:33:52.507Z,100037.25
2022-12-07T21:36:22.354Z,100039.78
2022-12-07T21:38:49.890Z,100040.44
2022-12-07T21:41:35.764Z,100037.88
2022-12-07T21:44:06.548Z,100041.72
2022-12-07T21:46:34.584Z,100039.53
2022-12-07T21:49:12.135Z,100038.84
2022-12-07T21:51:40.747Z,100034.44
2022-12-07T21:54:07.604Z,100026.34
2022-12-07T21:56:39.995Z,100024.50
2022-12-07T21:59:08.033Z,100027.03
2022-12-07T22:01:38.231Z,100028.69
2022-12-07T22:04:11.395Z,100023.31
2022-12-07T22:06:38.101Z,100008.50
2022-12-07T22:09:06.003Z,100004.78
2022-12-07T22:11:34.520Z,100010.34
2022-12-07T22:14:20.720Z,100007.66
2022-12-07T22:16:48.222Z,100002.41
2022-12-07T22:19:15.108Z,99998.75
2022-12-07T22:21:42.003Z,99996.72
2022-12-07T22:24:10.686Z,99999.59
2022-12-07T22:26:37.426Z,99994.72
2022-12-07T22:29:04.090Z,99993.00
2022-12-07T22:31:31.623Z,99986.97
2022-12-07T22:33:58.601Z,99992.16
2022-12-07T22:36:25.409Z,99989.31
2022-12-07T22:38:53.073Z,99991.19
2022-12-07T22:41:26.740Z,99991.00
2022-12-07T22:43:54.498Z,99992.66
2022-12-07T22:46:22.262Z,99992.16
2022-12-07T22:48:49.794Z,99990.00
2022-12-07T22:51:37.550Z,99986.66
2022-12-07T22:54:06.658Z,99983.66
2022-12-07T22:56:35.729Z,99980.28
2022-12-07T22:59:04.010Z,99973.09
2022-12-07T23:01:30.699Z,99978.13
2022-12-07T23:03:57.394Z,99974.59
2022-12-07T23:06:27.348Z,99968.53
2022-12-07T23:08:57.119Z,99967.22
2022-12-07T23:11:47.708Z,99974.97
2022-12-07T23:14:21.182Z,99959.88
2022-12-07T23:16:48.147Z,99959.56
2022-12-07T23:19:15.607Z,99956.19
2022-12-07T23:21:43.034Z,99955.22
2022-12-07T23:24:12.268Z,99948.13
2022-12-07T23:26:39.830Z,99945.13
2022-12-07T23:29:06.519Z,99945.63
2022-12-07T23:31:33.325Z,99941.44
2022-12-07T23:34:00.065Z,99940.13
2022-12-07T23:36:28.332Z,99931.03
2022-12-07T23:38:57.938Z,99938.47
2022-12-07T23:41:30.379Z,99928.53
2022-12-07T23:43:59.713Z,99925.34
2022-12-07T23:46:29.562Z,99917.78
2022-12-07T23:48:58.179Z,99924.00
2022-12-07T23:51:25.819Z,99923.34
2022-12-07T23:53:53.685Z,99921.31
2022-12-07T23:56:26.113Z,99912.09
2022-12-07T23:58:56.630Z,99908.41
